Sutton, AK (99674)

4:50 AM AKST on February 06, 2016 (GMT -0900)
Sutton/Kings River | | Change Station
CLOSE
Current Station
Personal Weather Station
Location: Sutton, AK
Elevation: 600 ft
Nearby Weather Stations

Elev 600 ft 61.74 °N, 148.77 °W | Updated 6 seconds ago

Clear
Clear
17.0 °F
Feels Like 17 °F
N
0.0
Wind Variable Wind from ESE
Gusts 0.0 mph

Today
High -- | Low -- °F
--% Chance of Precip.
Yesterday
High -- | Low -- °F
Precip. -- in
Pressure 29.58 in
Visibility 10.0 miles
Clouds Clear
Windchill 17 °F
Dew Point 8 °F
Humidity 68%
Rainfall 0.00 in
Snow Depth Not available.
9:06 AM 5:13 PM
Waning Crescent, 5% visible
METAR PAAQ 061253Z AUTO 35014KT 10SM CLR M06/M11 A2956 RMK AO2 SLP016 T10561111 TSNO
Pressure 29.58 in
Visibility 10.0 miles
Clouds Clear
Windchill 17 °F
Dew Point 8 °F
Humidity 68%
Rainfall 0.00 in
Snow Depth Not available.
9:06 AM 5:13 PM
Waning Crescent, 5% visible
METAR PAAQ 061253Z AUTO 35014KT 10SM CLR M06/M11 A2956 RMK AO2 SLP016 T10561111 TSNO

10-Day Weather Forecast

Almanac

Astronomy

Feb. 06, 2016 Rise Set
Actual Time
Civil Twilight
Nautical Twilight
Astronomical Twilight
Moon
Length of Visible Light
Length of Day
Tomorrow will be .
, % of the Moon is Illuminated

Today's Extremes

State Highs State Lows

Community

WunderPhotos

Upload Photos

1,890,971 photos uploaded!

WunderBlog® & News

Nearby

Air Quality

  Air Quality AQ Index Pollutant
Not available.

Snow Depth

Station Depth Elevation

Earthquake Activity

City Distance Mag. Time & Date
Minimum magnitude displayed is 2.5.

Coastal Water Temperatures

Place Temperature

Stations

Nearby Weather Stations

Station Location Temp. Windchill Dew Point Humidity Wind Precip. Elev Updated Type
                   

Watches & Warnings

There are currently no watches in effect.